Time;durP1;ratioP1;P1;durP2;ratioP2;P2;SDS_P1;SDS_P2;PMS_P1;PMS_P2;Temp;Humidity;BMP_temperature;BMP_pressure;BME280_temperature;BME280_humidity;BME280_pressure;Samples;Min_cycle;Max_cycle;Signal;HPM_P1;HPM_P2
2023/10/28 00:00:50;;;;;;;0.80;0.47;;;11.00;99.90;;;;;;5070019;28;20419;-71
2023/10/28 00:03:16;;;;;;;0.80;0.40;;;11.00;99.90;;;;;;5068884;28;20574;-71
2023/10/28 00:05:42;;;;;;;0.97;0.40;;;11.00;99.90;;;;;;5070290;28;20412;-71
2023/10/28 00:08:08;;;;;;;1.97;0.47;;;10.90;99.90;;;;;;5070128;28;21262;-71
2023/10/28 00:10:35;;;;;;;0.90;0.43;;;11.00;99.90;;;;;;5069829;28;20422;-71
2023/10/28 00:13:01;;;;;;;1.87;0.50;;;10.90;99.90;;;;;;5069874;28;20178;-71
2023/10/28 00:15:27;;;;;;;2.90;0.50;;;10.90;99.90;;;;;;5069969;28;20940;-71
2023/10/28 00:17:53;;;;;;;0.80;0.50;;;10.90;99.90;;;;;;5068474;28;20434;-71
2023/10/28 00:20:19;;;;;;;0.80;0.60;;;10.90;99.90;;;;;;5069536;28;20471;-71
2023/10/28 00:22:55;;;;;;;3.90;0.50;;;10.90;99.90;;;;;;5069124;28;20258;-71
2023/10/28 00:25:28;;;;;;;2.97;0.80;;;10.90;99.90;;;;;;5069240;28;20423;-71
2023/10/28 00:27:55;;;;;;;2.23;0.73;;;10.90;99.90;;;;;;5069102;28;21069;-71
2023/10/28 00:30:24;;;;;;;0.90;0.60;;;10.90;99.90;;;;;;5067477;28;20523;-71
2023/10/28 00:32:58;;;;;;;3.13;0.80;;;10.90;99.90;;;;;;5069217;28;20416;-71
2023/10/28 00:35:24;;;;;;;3.73;0.50;;;10.80;99.90;;;;;;5069074;28;20888;-71
2023/10/28 00:37:49;;;;;;;2.10;0.50;;;10.90;99.90;;;;;;5068889;28;20447;-71
2023/10/28 00:40:15;;;;;;;0.80;0.50;;;10.80;99.90;;;;;;5067256;28;20213;-70
2023/10/28 00:42:41;;;;;;;1.57;0.60;;;10.80;99.90;;;;;;5067399;28;20206;-71
2023/10/28 00:45:11;;;;;;;1.63;0.50;;;10.80;99.90;;;;;;5068833;28;20410;-70
2023/10/28 00:47:42;;;;;;;1.00;0.50;;;10.80;99.90;;;;;;5068782;28;20513;-71
2023/10/28 00:50:10;;;;;;;0.93;0.50;;;10.80;99.90;;;;;;5068851;28;20422;-71
2023/10/28 00:52:39;;;;;;;2.07;0.50;;;10.80;99.90;;;;;;5068644;28;20466;-70
2023/10/28 00:55:09;;;;;;;0.80;0.50;;;10.80;99.90;;;;;;5050250;28;20430;-70
2023/10/28 00:57:35;;;;;;;1.23;0.60;;;10.80;99.90;;;;;;5068226;28;20448;-71
2023/10/28 01:00:02;;;;;;;2.53;0.50;;;10.80;99.90;;;;;;5068486;28;20988;-70
2023/10/28 01:02:27;;;;;;;2.63;0.60;;;10.80;99.90;;;;;;5068576;28;20411;-70
2023/10/28 01:04:53;;;;;;;1.20;0.50;;;10.80;99.90;;;;;;5068548;28;20784;-71
2023/10/28 01:07:19;;;;;;;4.60;1.43;;;10.80;99.90;;;;;;5068433;28;20202;-70
2023/10/28 01:09:46;;;;;;;4.03;0.73;;;10.80;99.90;;;;;;5067032;28;20940;-71
2023/10/28 01:12:13;;;;;;;1.10;0.50;;;10.80;99.90;;;;;;5068655;28;20571;-71
2023/10/28 01:14:42;;;;;;;1.00;0.70;;;10.80;99.90;;;;;;5067042;28;20435;-70
2023/10/28 01:17:09;;;;;;;1.10;0.50;;;10.80;99.90;;;;;;5067089;28;20486;-70
2023/10/28 01:19:35;;;;;;;2.53;0.53;;;10.80;99.90;;;;;;5068532;28;20832;-70
2023/10/28 01:22:01;;;;;;;2.03;0.77;;;10.80;99.90;;;;;;5067033;28;20417;-69
2023/10/28 01:24:32;;;;;;;1.70;0.63;;;10.70;99.90;;;;;;5068623;28;20188;-71
2023/10/28 01:26:59;;;;;;;2.37;0.70;;;10.80;99.90;;;;;;5068331;28;20448;-71
2023/10/28 01:29:25;;;;;;;2.13;0.70;;;10.80;99.90;;;;;;5068551;28;20443;-71
2023/10/28 01:31:51;;;;;;;1.43;0.87;;;10.70;99.90;;;;;;5066827;28;20428;-71
2023/10/28 01:34:16;;;;;;;2.60;0.70;;;10.70;99.90;;;;;;5068604;28;20506;-71
2023/10/28 01:36:43;;;;;;;1.20;0.60;;;10.70;99.90;;;;;;5068424;28;20190;-70
2023/10/28 01:39:12;;;;;;;4.00;1.50;;;10.80;99.90;;;;;;5050456;28;20213;-71
2023/10/28 01:41:38;;;;;;;2.80;0.70;;;10.70;99.90;;;;;;5068379;28;20418;-69
2023/10/28 01:44:04;;;;;;;4.20;0.80;;;10.70;99.90;;;;;;5067040;28;20475;-70
2023/10/28 01:46:29;;;;;;;6.00;0.83;;;10.70;99.90;;;;;;5068559;28;20181;-70
2023/10/28 01:48:55;;;;;;;5.47;1.00;;;10.70;99.90;;;;;;5068313;28;20444;-70
2023/10/28 01:51:20;;;;;;;1.77;0.70;;;10.60;99.90;;;;;;5067460;28;20212;-70
2023/10/28 01:53:46;;;;;;;1.97;0.80;;;10.70;99.90;;;;;;5050618;28;20186;-70
2023/10/28 01:56:12;;;;;;;4.63;1.00;;;10.60;99.90;;;;;;5066999;28;20209;-70
2023/10/28 01:58:37;;;;;;;4.43;1.03;;;10.60;99.90;;;;;;5068383;28;20208;-70
2023/10/28 02:01:03;;;;;;;5.27;1.37;;;10.60;99.90;;;;;;5050211;28;20191;-70
2023/10/28 02:03:29;;;;;;;2.23;0.93;;;10.60;99.90;;;;;;5068344;28;20187;-70
2023/10/28 02:05:54;;;;;;;3.37;1.03;;;10.60;99.90;;;;;;5068351;28;20272;-70
2023/10/28 02:08:21;;;;;;;3.90;0.90;;;10.60;99.90;;;;;;5069857;28;20257;-70
2023/10/28 02:10:46;;;;;;;4.23;0.87;;;10.50;99.90;;;;;;5053934;28;20234;-70
2023/10/28 02:13:13;;;;;;;1.90;0.93;;;10.60;99.90;;;;;;5072345;28;20414;-71
2023/10/28 02:15:38;;;;;;;4.43;1.10;;;10.60;99.90;;;;;;5072321;28;20524;-70
2023/10/28 02:18:04;;;;;;;8.33;1.17;;;10.60;99.90;;;;;;5071946;28;20497;-71
2023/10/28 02:20:30;;;;;;;4.27;0.93;;;10.60;99.90;;;;;;5072261;28;20997;-70
2023/10/28 02:22:56;;;;;;;6.53;1.20;;;10.60;99.90;;;;;;5070864;28;20431;-71
2023/10/28 02:25:23;;;;;;;8.60;1.27;;;10.60;99.90;;;;;;5071955;28;20447;-70
2023/10/28 02:27:49;;;;;;;4.77;1.10;;;10.60;99.90;;;;;;5070645;28;20216;-70
2023/10/28 02:30:15;;;;;;;3.40;1.10;;;10.50;99.90;;;;;;5072022;28;20439;-70
2023/10/28 02:32:40;;;;;;;3.17;1.00;;;10.60;99.90;;;;;;5071936;28;20200;-70
2023/10/28 02:35:06;;;;;;;1.63;1.00;;;10.60;99.90;;;;;;5071694;28;20178;-71
2023/10/28 02:37:32;;;;;;;4.53;1.43;;;10.70;99.90;;;;;;5071830;28;20277;-70
2023/10/28 02:39:57;;;;;;;4.13;1.00;;;10.70;99.90;;;;;;5071516;28;21224;-70
2023/10/28 02:42:23;;;;;;;5.80;1.57;;;10.70;99.90;;;;;;5071644;28;20252;-70
2023/10/28 02:44:49;;;;;;;5.80;1.33;;;10.70;99.90;;;;;;5071536;28;20176;-70
2023/10/28 02:47:15;;;;;;;7.27;1.43;;;10.70;99.90;;;;;;5071852;28;20483;-71
2023/10/28 02:49:41;;;;;;;3.40;1.10;;;10.70;99.90;;;;;;5071514;28;20418;-70
2023/10/28 02:52:07;;;;;;;2.73;1.00;;;10.70;99.90;;;;;;5071527;28;20184;-71
2023/10/28 02:54:34;;;;;;;4.27;0.90;;;10.70;99.90;;;;;;5071304;28;20504;-70
2023/10/28 02:57:00;;;;;;;4.03;1.33;;;10.80;99.90;;;;;;5071450;28;20206;-70
2023/10/28 02:59:27;;;;;;;5.70;1.40;;;10.80;99.90;;;;;;5071310;28;20570;-70
2023/10/28 03:01:52;;;;;;;3.00;1.10;;;10.70;99.90;;;;;;5071428;28;20421;-70
2023/10/28 03:04:18;;;;;;;10.03;1.87;;;10.80;99.90;;;;;;5053359;28;20510;-70
2023/10/28 03:06:45;;;;;;;11.70;1.67;;;10.80;99.90;;;;;;5071656;28;20561;-70
2023/10/28 03:09:11;;;;;;;4.00;1.10;;;10.90;99.90;;;;;;5070412;28;20213;-70
2023/10/28 03:11:37;;;;;;;1.60;0.90;;;10.90;99.90;;;;;;5070621;28;20476;-70
2023/10/28 03:14:06;;;;;;;3.87;0.93;;;10.90;99.90;;;;;;5070209;28;20589;-70
2023/10/28 03:16:32;;;;;;;8.30;1.93;;;10.90;99.90;;;;;;5071687;28;20422;-70
2023/10/28 03:18:57;;;;;;;5.27;1.40;;;10.90;99.90;;;;;;5068974;28;20464;-70
2023/10/28 03:21:24;;;;;;;11.20;2.37;;;10.90;99.90;;;;;;5071294;28;20172;-71
2023/10/28 03:23:50;;;;;;;7.10;1.90;;;11.00;99.90;;;;;;5071178;28;20225;-71
2023/10/28 03:26:15;;;;;;;7.73;1.83;;;11.00;99.90;;;;;;5069501;28;20457;-71
2023/10/28 03:28:41;;;;;;;3.97;1.20;;;10.90;99.90;;;;;;5070765;28;20474;-71
2023/10/28 03:31:11;;;;;;;4.00;1.40;;;11.00;99.90;;;;;;5071022;28;20185;-70
2023/10/28 03:33:40;;;;;;;3.53;1.17;;;10.90;99.90;;;;;;5070501;28;20190;-71
2023/10/28 03:36:08;;;;;;;4.20;1.30;;;10.90;99.90;;;;;;5070505;28;20423;-71
2023/10/28 03:38:34;;;;;;;4.57;1.37;;;10.90;99.90;;;;;;5070327;28;20479;-71
2023/10/28 03:41:05;;;;;;;3.23;1.00;;;10.90;99.90;;;;;;5070382;28;20421;-71
2023/10/28 03:43:31;;;;;;;7.13;1.30;;;10.90;99.90;;;;;;5070577;28;20216;-70
2023/10/28 03:45:57;;;;;;;5.53;0.90;;;10.90;99.90;;;;;;5069204;28;20468;-70
2023/10/28 03:48:23;;;;;;;3.87;1.07;;;11.00;99.90;;;;;;5070275;28;20211;-71
2023/10/28 03:51:00;;;;;;;2.23;0.90;;;10.90;99.90;;;;;;5069141;28;20412;-71
2023/10/28 03:53:26;;;;;;;4.50;1.10;;;10.90;99.90;;;;;;5068860;28;20431;-70
2023/10/28 03:55:52;;;;;;;4.97;1.30;;;10.90;99.90;;;;;;5070239;28;20421;-70
2023/10/28 03:58:17;;;;;;;2.87;0.90;;;10.90;99.90;;;;;;5070020;28;20209;-71
2023/10/28 04:00:43;;;;;;;1.97;0.90;;;10.90;99.90;;;;;;5068720;28;20212;-71
2023/10/28 04:03:09;;;;;;;6.33;1.23;;;10.90;99.90;;;;;;5068679;28;20550;-71
2023/10/28 04:05:34;;;;;;;1.87;0.87;;;10.90;99.90;;;;;;5070173;28;20270;-71
2023/10/28 04:08:00;;;;;;;4.00;1.13;;;10.90;99.90;;;;;;5069783;28;20204;-71
2023/10/28 04:10:25;;;;;;;6.40;1.10;;;10.90;99.90;;;;;;5068754;28;20206;-70
2023/10/28 04:12:51;;;;;;;8.40;1.37;;;10.90;99.90;;;;;;5069782;28;20400;-70
2023/10/28 04:15:18;;;;;;;4.83;0.83;;;10.90;99.90;;;;;;5068486;28;20189;-70
2023/10/28 04:17:44;;;;;;;3.27;1.00;;;10.80;99.90;;;;;;5069733;28;21013;-70
2023/10/28 04:20:10;;;;;;;4.10;1.30;;;10.80;99.90;;;;;;5069961;28;20501;-70
2023/10/28 04:22:39;;;;;;;6.43;1.03;;;10.80;99.90;;;;;;5069734;28;20413;-70
2023/10/28 04:25:05;;;;;;;5.10;1.13;;;10.80;99.90;;;;;;5068504;28;20186;-70
2023/10/28 04:27:32;;;;;;;3.27;0.77;;;10.80;99.90;;;;;;5069595;28;20488;-72
2023/10/28 04:29:58;;;;;;;2.93;0.73;;;10.80;99.90;;;;;;5070024;28;20423;-71
2023/10/28 04:32:24;;;;;;;2.27;0.80;;;10.80;99.90;;;;;;5069753;28;20428;-71
2023/10/28 04:34:53;;;;;;;3.70;0.90;;;10.80;99.90;;;;;;5068717;28;20190;-70
2023/10/28 04:37:18;;;;;;;2.63;0.90;;;10.80;99.90;;;;;;5069889;28;20528;-70
2023/10/28 04:39:44;;;;;;;9.00;1.37;;;10.80;99.90;;;;;;5069806;28;20511;-70
2023/10/28 04:42:10;;;;;;;2.00;0.83;;;10.80;99.90;;;;;;5068430;28;20221;-71
2023/10/28 04:44:35;;;;;;;1.67;0.70;;;10.70;99.90;;;;;;5068639;28;20665;-72
2023/10/28 04:47:01;;;;;;;4.30;0.90;;;10.80;99.90;;;;;;5069328;28;20172;-71
2023/10/28 04:49:28;;;;;;;2.20;0.73;;;10.70;99.90;;;;;;5069190;28;20214;-71
2023/10/28 04:51:54;;;;;;;2.53;0.80;;;10.70;99.90;;;;;;5051198;28;20272;-71
2023/10/28 04:54:20;;;;;;;2.50;0.70;;;10.70;99.90;;;;;;5069004;28;20475;-71
2023/10/28 04:56:46;;;;;;;1.03;0.73;;;10.80;99.90;;;;;;5069158;28;20212;-71
2023/10/28 04:59:12;;;;;;;2.57;0.90;;;10.90;99.90;;;;;;5067645;28;21360;-71
2023/10/28 05:01:38;;;;;;;3.60;0.80;;;10.90;99.90;;;;;;5069199;28;20171;-70
2023/10/28 05:04:04;;;;;;;3.23;0.60;;;10.90;99.90;;;;;;5069160;28;20412;-71
2023/10/28 05:06:30;;;;;;;3.43;0.77;;;10.90;99.90;;;;;;5068967;28;20175;-70
2023/10/28 05:08:55;;;;;;;2.93;0.80;;;10.90;99.90;;;;;;5068763;28;20317;-69
2023/10/28 05:11:21;;;;;;;2.63;1.00;;;10.90;99.90;;;;;;5067294;28;20504;-70
2023/10/28 05:13:47;;;;;;;2.30;0.80;;;11.00;99.90;;;;;;5068611;28;20186;-70
2023/10/28 05:16:13;;;;;;;3.30;1.00;;;11.00;99.90;;;;;;5067270;28;20191;-68
2023/10/28 05:18:38;;;;;;;3.47;0.87;;;11.00;99.90;;;;;;5068538;28;20213;-70
2023/10/28 05:21:05;;;;;;;3.70;0.90;;;11.10;99.90;;;;;;5068626;28;20418;-70
2023/10/28 05:23:31;;;;;;;2.43;0.93;;;11.10;99.90;;;;;;5067174;28;20658;-69
2023/10/28 05:25:56;;;;;;;2.40;0.90;;;11.10;99.90;;;;;;5068616;28;20424;-70
2023/10/28 05:28:22;;;;;;;1.63;0.80;;;11.10;99.90;;;;;;5067269;28;20217;-69
2023/10/28 05:30:48;;;;;;;4.43;1.00;;;11.20;99.90;;;;;;5068465;28;20601;-70
2023/10/28 05:33:13;;;;;;;1.87;0.70;;;11.20;99.90;;;;;;5067350;28;20206;-70
2023/10/28 05:35:39;;;;;;;8.27;1.27;;;11.20;99.90;;;;;;5067115;28;20842;-69
2023/10/28 05:38:05;;;;;;;3.43;1.00;;;11.10;99.90;;;;;;5068691;28;20686;-70
2023/10/28 05:40:31;;;;;;;3.33;1.07;;;11.00;99.90;;;;;;5050625;28;20214;-70
2023/10/28 05:42:56;;;;;;;8.13;1.40;;;11.00;99.90;;;;;;5067830;28;20180;-69
2023/10/28 05:45:22;;;;;;;5.07;1.03;;;10.90;99.90;;;;;;5068129;28;20272;-69
2023/10/28 05:47:47;;;;;;;3.53;0.97;;;10.90;99.90;;;;;;5068242;28;20205;-69
2023/10/28 05:50:13;;;;;;;4.73;1.53;;;10.80;99.90;;;;;;5068420;28;20677;-70
2023/10/28 05:52:39;;;;;;;5.77;1.83;;;10.80;99.90;;;;;;5066778;28;20218;-70
2023/10/28 05:55:17;;;;;;;8.43;2.00;;;10.70;99.90;;;;;;5066952;28;20506;-70
2023/10/28 05:57:43;;;;;;;5.57;2.30;;;10.70;99.90;;;;;;5068194;28;20242;-70
2023/10/28 06:00:15;;;;;;;4.17;2.97;;;10.70;99.90;;;;;;5066698;28;20480;-71
2023/10/28 06:02:41;;;;;;;7.40;3.20;;;10.70;99.90;;;;;;5068280;28;20869;-69
2023/10/28 06:05:07;;;;;;;6.87;3.60;;;10.60;99.90;;;;;;5068289;28;20421;-69
2023/10/28 06:07:33;;;;;;;4.80;3.00;;;10.60;99.90;;;;;;5068250;28;20217;-71
2023/10/28 06:09:59;;;;;;;10.60;3.00;;;10.60;99.90;;;;;;5068193;28;20558;-70
2023/10/28 06:12:25;;;;;;;4.93;2.90;;;10.70;99.90;;;;;;5066662;28;20420;-70
2023/10/28 06:14:51;;;;;;;6.70;2.73;;;10.70;99.90;;;;;;5068097;28;20232;-70
2023/10/28 06:17:17;;;;;;;6.80;2.27;;;10.60;99.90;;;;;;5066959;28;21094;-70
2023/10/28 06:19:42;;;;;;;6.17;1.70;;;10.60;99.90;;;;;;5066653;28;20497;-70
2023/10/28 06:22:11;;;;;;;4.40;1.90;;;10.50;99.90;;;;;;5066912;28;20416;-70
2023/10/28 06:24:38;;;;;;;3.50;1.60;;;10.60;99.90;;;;;;5068082;28;20173;-70
2023/10/28 06:27:04;;;;;;;3.10;1.20;;;10.50;99.90;;;;;;5066444;28;20506;-70
2023/10/28 06:29:30;;;;;;;2.27;1.00;;;10.40;99.90;;;;;;5067830;28;20426;-70
2023/10/28 06:31:58;;;;;;;1.23;1.00;;;10.40;99.90;;;;;;5068110;28;21279;-70
2023/10/28 06:34:27;;;;;;;5.83;1.00;;;10.40;99.90;;;;;;5066566;28;20187;-70
2023/10/28 06:36:53;;;;;;;2.13;0.97;;;10.40;99.90;;;;;;5067956;28;20425;-70
2023/10/28 06:39:18;;;;;;;3.00;1.03;;;10.40;99.90;;;;;;5067897;28;20882;-70
2023/10/28 06:41:44;;;;;;;7.23;1.27;;;10.40;99.90;;;;;;5068184;28;20415;-70
2023/10/28 06:44:10;;;;;;;6.00;1.83;;;10.40;99.90;;;;;;5067929;28;20185;-70
2023/10/28 06:46:36;;;;;;;5.13;1.20;;;10.40;99.90;;;;;;5066715;28;20237;-71
2023/10/28 06:49:02;;;;;;;4.97;1.40;;;10.40;99.90;;;;;;5067932;28;20208;-70
2023/10/28 06:51:28;;;;;;;5.03;1.10;;;10.40;99.90;;;;;;5068068;28;20519;-69
2023/10/28 06:53:54;;;;;;;4.23;2.30;;;10.50;99.90;;;;;;5068414;28;20181;-70
2023/10/28 06:56:19;;;;;;;13.33;1.70;;;10.50;99.90;;;;;;5069909;28;20465;-70
2023/10/28 06:58:45;;;;;;;7.53;1.70;;;10.50;99.90;;;;;;5071076;28;20274;-70
2023/10/28 07:01:10;;;;;;;2.70;0.90;;;10.60;99.90;;;;;;5071387;28;20250;-70
2023/10/28 07:03:40;;;;;;;3.40;1.00;;;10.70;99.90;;;;;;5053193;28;20178;-70
2023/10/28 07:06:09;;;;;;;5.13;1.10;;;10.70;99.90;;;;;;5069821;28;20185;-70
2023/10/28 07:08:36;;;;;;;2.60;1.10;;;10.70;99.90;;;;;;5071333;28;20441;-70
2023/10/28 07:11:02;;;;;;;4.53;1.40;;;10.80;99.90;;;;;;5070357;28;20493;-70
2023/10/28 07:13:27;;;;;;;3.37;0.90;;;10.90;99.90;;;;;;5069897;28;20429;-70
2023/10/28 07:16:01;;;;;;;3.80;1.37;;;10.90;99.90;;;;;;5051153;28;20186;-70
2023/10/28 07:18:27;;;;;;;5.13;0.93;;;11.00;99.90;;;;;;5069439;28;20214;-71
2023/10/28 07:20:53;;;;;;;3.73;1.07;;;11.00;99.90;;;;;;5069470;28;20425;-71
2023/10/28 07:23:20;;;;;;;2.70;1.00;;;10.90;99.90;;;;;;5069536;28;20174;-69
2023/10/28 07:25:45;;;;;;;4.10;0.90;;;11.00;99.90;;;;;;5069696;28;20563;-70
2023/10/28 07:28:13;;;;;;;4.03;1.13;;;11.00;99.90;;;;;;5067632;28;20552;-71
2023/10/28 07:30:50;;;;;;;3.60;1.10;;;11.00;99.90;;;;;;5068196;28;20186;-69
2023/10/28 07:33:20;;;;;;;5.60;1.43;;;11.10;99.90;;;;;;5051236;28;20534;-69
2023/10/28 07:35:47;;;;;;;2.33;1.03;;;11.10;99.90;;;;;;5067994;28;20422;-70
2023/10/28 07:38:16;;;;;;;3.47;1.30;;;11.10;99.90;;;;;;5069161;28;21019;-70
2023/10/28 07:40:42;;;;;;;4.67;1.57;;;11.20;99.90;;;;;;5069352;28;20598;-70
2023/10/28 07:43:11;;;;;;;2.27;1.00;;;11.30;99.90;;;;;;5069410;28;20420;-70
2023/10/28 07:45:38;;;;;;;5.33;1.47;;;11.40;99.90;;;;;;5068276;28;20412;-70
2023/10/28 07:48:06;;;;;;;5.40;1.20;;;11.60;99.90;;;;;;5069480;28;20472;-71
2023/10/28 07:50:33;;;;;;;6.50;1.03;;;11.70;99.90;;;;;;5068445;28;20427;-70
2023/10/28 07:52:59;;;;;;;1.87;0.90;;;11.90;99.90;;;;;;5051503;28;20415;-70
2023/10/28 07:55:24;;;;;;;2.50;0.90;;;12.00;99.90;;;;;;5069494;28;20430;-70
2023/10/28 07:57:50;;;;;;;4.77;0.93;;;12.00;99.90;;;;;;5069952;28;20218;-71
2023/10/28 08:00:16;;;;;;;3.10;0.90;;;12.10;99.90;;;;;;5069933;28;20254;-71
2023/10/28 08:02:45;;;;;;;6.57;0.93;;;12.10;99.90;;;;;;5067519;28;20189;-70
2023/10/28 08:05:13;;;;;;;4.57;1.13;;;12.10;99.90;;;;;;5068447;28;20835;-70
2023/10/28 08:07:40;;;;;;;4.00;0.77;;;12.20;99.90;;;;;;5068680;28;20439;-70
2023/10/28 08:10:06;;;;;;;4.20;1.00;;;12.30;99.90;;;;;;5067211;28;20427;-70
2023/10/28 08:12:32;;;;;;;3.07;0.67;;;12.30;99.90;;;;;;5068619;28;20429;-70
2023/10/28 08:15:02;;;;;;;3.47;0.77;;;12.40;99.90;;;;;;5068666;28;20412;-71
2023/10/28 08:17:29;;;;;;;1.30;0.93;;;12.80;99.90;;;;;;5068304;28;20205;-71
2023/10/28 08:19:54;;;;;;;5.30;1.17;;;13.30;99.90;;;;;;5068547;28;20463;-70
2023/10/28 08:22:20;;;;;;;6.60;1.60;;;13.30;99.90;;;;;;5067171;28;20875;-69
2023/10/28 08:24:46;;;;;;;6.07;1.30;;;13.20;99.90;;;;;;5068498;28;20182;-70
2023/10/28 08:27:12;;;;;;;7.17;1.60;;;13.40;99.90;;;;;;5068311;28;20599;-70
2023/10/28 08:29:37;;;;;;;4.97;1.03;;;13.80;99.90;;;;;;5068480;28;20214;-70
2023/10/28 08:32:03;;;;;;;4.87;1.40;;;14.60;99.90;;;;;;5067364;28;20623;-70
2023/10/28 08:34:29;;;;;;;3.23;0.90;;;15.00;99.90;;;;;;5068697;28;20187;-70
2023/10/28 08:36:55;;;;;;;5.77;1.10;;;15.10;99.90;;;;;;5066953;28;20416;-70
2023/10/28 08:39:21;;;;;;;3.63;0.80;;;14.90;99.90;;;;;;5068256;28;20304;-71
2023/10/28 08:41:47;;;;;;;4.70;1.20;;;15.00;99.90;;;;;;5067234;28;20182;-71
2023/10/28 08:44:14;;;;;;;3.60;0.87;;;15.00;99.90;;;;;;5050808;28;20653;-70
2023/10/28 08:46:42;;;;;;;3.87;1.00;;;14.30;99.90;;;;;;5067111;28;20413;-71
2023/10/28 08:49:13;;;;;;;4.20;1.20;;;14.30;99.90;;;;;;5068414;28;20894;-71
2023/10/28 08:51:44;;;;;;;9.70;1.43;;;14.10;99.90;;;;;;5068668;28;20511;-71
2023/10/28 08:54:10;;;;;;;5.00;1.60;;;14.30;99.90;;;;;;5068363;28;20413;-71
2023/10/28 08:56:40;;;;;;;5.13;2.20;;;15.10;99.90;;;;;;5068308;28;20421;-70
2023/10/28 08:59:07;;;;;;;5.10;2.60;;;15.80;99.90;;;;;;5068280;28;20476;-71
2023/10/28 09:01:34;;;;;;;5.40;1.60;;;16.00;99.90;;;;;;5067971;28;21042;-71
2023/10/28 09:04:01;;;;;;;4.77;0.80;;;15.90;99.90;;;;;;5067590;28;20422;-71
2023/10/28 09:06:28;;;;;;;3.50;1.50;;;15.70;99.90;;;;;;5067399;28;20417;-70
2023/10/28 09:08:55;;;;;;;3.20;1.20;;;15.10;99.90;;;;;;5066242;28;20534;-70
2023/10/28 09:11:21;;;;;;;4.07;1.33;;;14.90;99.90;;;;;;5066231;28;20516;-70
2023/10/28 09:13:47;;;;;;;9.27;1.60;;;14.60;99.90;;;;;;5067567;28;20804;-70
2023/10/28 09:16:14;;;;;;;2.90;1.10;;;14.50;99.90;;;;;;5067139;28;20430;-70
2023/10/28 09:18:41;;;;;;;5.33;1.00;;;14.40;99.90;;;;;;5066944;28;20198;-70
2023/10/28 09:21:09;;;;;;;1.60;0.80;;;14.20;99.90;;;;;;5067503;28;21058;-71
2023/10/28 09:23:35;;;;;;;5.90;1.43;;;14.10;99.90;;;;;;5065869;28;20415;-70
2023/10/28 09:26:01;;;;;;;4.10;0.83;;;14.20;99.90;;;;;;5067416;28;20498;-70
2023/10/28 09:28:27;;;;;;;4.27;1.00;;;14.10;99.90;;;;;;5067088;28;21057;-70
2023/10/28 09:30:53;;;;;;;4.20;2.13;;;14.10;99.90;;;;;;5065782;28;20193;-70
2023/10/28 09:33:19;;;;;;;4.20;1.47;;;14.00;99.90;;;;;;5067160;28;20417;-70
2023/10/28 09:35:46;;;;;;;3.13;1.20;;;14.10;99.90;;;;;;5067534;28;20175;-70
2023/10/28 09:38:12;;;;;;;2.90;1.10;;;14.10;99.90;;;;;;5067165;28;20447;-70
2023/10/28 09:40:39;;;;;;;8.80;2.07;;;13.80;99.90;;;;;;5067371;28;21032;-70
2023/10/28 09:43:06;;;;;;;6.07;1.87;;;13.90;99.90;;;;;;5067147;28;20928;-70
2023/10/28 09:45:32;;;;;;;6.87;1.23;;;14.00;99.90;;;;;;5067350;28;20426;-69
2023/10/28 09:48:02;;;;;;;4.43;1.20;;;13.90;99.90;;;;;;5067041;28;20465;-71
2023/10/28 09:50:33;;;;;;;1.90;1.23;;;13.90;99.90;;;;;;5067301;28;20425;-71
2023/10/28 09:52:59;;;;;;;4.83;1.20;;;13.90;99.90;;;;;;5067186;28;20421;-70
2023/10/28 09:55:44;;;;;;;3.67;1.30;;;14.00;99.90;;;;;;5067441;28;20422;-69
2023/10/28 09:58:14;;;;;;;5.70;1.30;;;13.90;99.90;;;;;;5067014;28;20217;-71
2023/10/28 10:00:42;;;;;;;3.23;1.20;;;14.00;99.90;;;;;;5067236;28;21077;-71
2023/10/28 10:03:28;;;;;;;6.30;1.10;;;14.20;99.90;;;;;;5065874;28;20417;-70
2023/10/28 10:05:55;;;;;;;3.40;1.27;;;14.20;99.90;;;;;;5067043;28;20458;-71
2023/10/28 10:08:25;;;;;;;3.47;1.20;;;14.10;99.90;;;;;;5067215;28;20943;-71
2023/10/28 10:10:53;;;;;;;4.70;1.60;;;14.10;99.90;;;;;;5066868;28;20417;-71
2023/10/28 10:13:18;;;;;;;8.23;1.30;;;14.10;99.90;;;;;;5066973;28;20842;-70
2023/10/28 10:16:04;;;;;;;5.03;2.03;;;14.00;99.90;;;;;;5067111;28;20453;-71
2023/10/28 10:18:31;;;;;;;4.30;1.27;;;14.00;99.90;;;;;;5048991;28;20650;-71
2023/10/28 10:21:12;;;;;;;6.13;1.20;;;14.00;99.90;;;;;;5067405;28;20417;-71
2023/10/28 10:23:43;;;;;;;3.90;1.67;;;14.00;99.90;;;;;;5068250;28;20400;-70
2023/10/28 10:26:27;;;;;;;6.77;2.10;;;14.00;99.90;;;;;;5065951;28;20436;-71
2023/10/28 10:28:58;;;;;;;2.30;1.20;;;14.00;99.90;;;;;;5069661;28;20441;-71
2023/10/28 10:31:29;;;;;;;10.40;1.50;;;14.20;99.90;;;;;;5071373;28;20474;-71
2023/10/28 10:34:09;;;;;;;4.17;1.50;;;14.40;99.90;;;;;;5071290;28;20431;-70
2023/10/28 10:36:43;;;;;;;4.43;1.60;;;14.90;99.90;;;;;;5070248;28;20507;-71
2023/10/28 10:39:16;;;;;;;4.93;1.60;;;15.80;99.90;;;;;;5071198;28;21089;-69
2023/10/28 10:41:43;;;;;;;6.57;2.47;;;16.70;99.90;;;;;;5071177;28;20416;-69
2023/10/28 10:44:28;;;;;;;4.27;1.77;;;16.90;99.90;;;;;;5071028;28;20420;-71
2023/10/28 10:46:58;;;;;;;3.30;1.50;;;16.80;99.90;;;;;;5070736;28;20412;-70
2023/10/28 10:49:24;;;;;;;2.83;1.23;;;16.50;99.90;;;;;;5070671;28;21258;-70
2023/10/28 10:51:50;;;;;;;2.07;1.10;;;16.10;99.90;;;;;;5069148;28;20571;-70
2023/10/28 10:54:19;;;;;;;6.73;1.87;;;15.70;99.90;;;;;;5070281;28;21061;-71
2023/10/28 10:56:45;;;;;;;5.13;1.50;;;15.50;99.90;;;;;;5068499;28;20471;-70
2023/10/28 10:59:11;;;;;;;5.53;1.43;;;15.10;99.90;;;;;;5070210;28;20466;-71
2023/10/28 11:01:38;;;;;;;4.00;1.23;;;15.00;99.90;;;;;;5070610;28;20941;-70
2023/10/28 11:04:07;;;;;;;4.67;1.20;;;14.80;99.90;;;;;;5070122;28;20449;-71
2023/10/28 11:06:36;;;;;;;5.13;2.07;;;14.70;99.90;;;;;;5070141;28;20424;-71
2023/10/28 11:09:06;;;;;;;4.70;1.17;;;15.00;99.90;;;;;;5068760;28;20553;-71
2023/10/28 11:11:35;;;;;;;6.13;1.70;;;14.80;99.90;;;;;;5070295;28;20420;-70
2023/10/28 11:14:05;;;;;;;7.27;1.20;;;14.80;99.90;;;;;;5070358;28;20451;-70
2023/10/28 11:16:32;;;;;;;4.53;0.93;;;14.80;99.90;;;;;;5070211;28;20406;-71
2023/10/28 11:19:01;;;;;;;16.33;6.40;;;14.50;99.90;;;;;;5069907;28;20583;-71
2023/10/28 11:21:28;;;;;;;4.23;1.97;;;15.20;99.90;;;;;;5070192;28;20399;-70
2023/10/28 11:23:54;;;;;;;4.37;1.50;;;15.50;99.90;;;;;;5070329;28;20412;-70
2023/10/28 11:26:21;;;;;;;2.83;1.40;;;15.90;99.90;;;;;;5070292;28;21016;-71
2023/10/28 11:28:47;;;;;;;5.90;2.10;;;15.90;99.90;;;;;;5070377;28;20465;-71
2023/10/28 11:31:12;;;;;;;6.00;1.57;;;16.20;99.90;;;;;;5070331;28;20484;-70
2023/10/28 11:33:38;;;;;;;7.37;1.60;;;16.00;99.90;;;;;;5071775;28;20423;-70
2023/10/28 11:36:05;;;;;;;5.13;1.50;;;16.00;99.90;;;;;;5071194;28;20175;-70
2023/10/28 11:38:33;;;;;;;5.47;1.33;;;16.00;99.90;;;;;;5070098;28;20250;-70
2023/10/28 11:41:06;;;;;;;6.63;1.70;;;16.20;99.90;;;;;;5069495;28;20467;-70
2023/10/28 11:43:35;;;;;;;5.83;1.17;;;16.20;99.90;;;;;;5070420;28;20412;-70
2023/10/28 11:46:01;;;;;;;6.00;1.30;;;15.90;99.90;;;;;;5070400;28;20412;-70
2023/10/28 11:48:27;;;;;;;4.30;1.57;;;15.30;99.90;;;;;;5070226;28;20441;-70
2023/10/28 11:50:54;;;;;;;4.00;1.30;;;15.20;99.90;;;;;;5069210;28;20668;-70
2023/10/28 11:53:27;;;;;;;6.17;2.93;;;15.00;99.90;;;;;;5070121;28;20411;-70
2023/10/28 11:55:54;;;;;;;4.93;2.00;;;14.70;99.90;;;;;;5035412;28;20450;-70
2023/10/28 11:58:24;;;;;;;8.93;2.70;;;14.60;99.90;;;;;;5068426;28;20431;-71
2023/10/28 12:00:52;;;;;;;12.73;2.50;;;14.50;99.90;;;;;;5068613;28;20468;-71
2023/10/28 12:03:19;;;;;;;5.10;1.90;;;14.50;99.90;;;;;;5069795;28;21269;-71
2023/10/28 12:05:44;;;;;;;4.20;1.60;;;14.40;99.90;;;;;;5068049;28;21217;-70
2023/10/28 12:08:11;;;;;;;4.53;1.60;;;14.30;99.90;;;;;;5067623;28;20443;-70
2023/10/28 12:10:44;;;;;;;4.00;1.37;;;14.20;99.90;;;;;;5069188;28;20244;-70
2023/10/28 12:13:11;;;;;;;1.70;1.00;;;14.00;99.90;;;;;;5067620;28;20418;-70
2023/10/28 12:15:37;;;;;;;2.53;1.30;;;14.10;99.90;;;;;;5068946;28;20424;-70
2023/10/28 12:18:02;;;;;;;4.80;1.43;;;14.10;99.90;;;;;;5067192;28;20533;-70
2023/10/28 12:20:28;;;;;;;4.53;2.03;;;14.10;99.90;;;;;;5067137;28;20238;-70
2023/10/28 12:22:53;;;;;;;3.80;1.30;;;14.00;99.90;;;;;;5068679;28;20222;-71
2023/10/28 12:25:19;;;;;;;5.47;1.30;;;14.10;99.90;;;;;;5068847;28;20180;-70
2023/10/28 12:27:45;;;;;;;5.40;1.60;;;14.10;99.90;;;;;;5068537;28;20226;-69
2023/10/28 12:30:11;;;;;;;4.87;1.30;;;14.30;99.90;;;;;;5067309;28;20246;-71
2023/10/28 12:32:37;;;;;;;5.33;1.40;;;14.50;99.90;;;;;;5050631;28;20486;-70
2023/10/28 12:35:02;;;;;;;5.73;1.57;;;14.50;99.90;;;;;;5069120;28;20183;-70
2023/10/28 12:37:28;;;;;;;3.33;1.13;;;14.70;99.90;;;;;;5068789;28;20202;-70
2023/10/28 12:39:53;;;;;;;5.13;1.60;;;14.80;99.90;;;;;;5068841;28;20207;-70
2023/10/28 12:42:19;;;;;;;6.77;1.57;;;14.90;99.90;;;;;;5067685;28;20666;-71
2023/10/28 12:44:45;;;;;;;5.33;1.43;;;15.00;99.90;;;;;;5068834;28;20182;-71